createdAt,value
2022-12-22T00:00:47.614Z,972.79
2022-12-22T00:01:50.227Z,972.79
2022-12-22T00:02:47.938Z,972.80
2022-12-22T00:03:47.738Z,972.80
2022-12-22T00:04:47.566Z,972.80
2022-12-22T00:05:47.583Z,972.79
2022-12-22T00:06:47.542Z,972.81
2022-12-22T00:07:47.788Z,972.85
2022-12-22T00:08:47.591Z,972.77
2022-12-22T00:09:47.560Z,972.74
2022-12-22T00:10:47.494Z,972.74
2022-12-22T00:11:47.515Z,972.68
2022-12-22T00:12:47.487Z,972.73
2022-12-22T00:13:47.484Z,972.70
2022-12-22T00:14:47.454Z,972.70
2022-12-22T00:15:48.463Z,972.72
2022-12-22T00:16:47.495Z,972.67
2022-12-22T00:17:47.444Z,972.66
2022-12-22T00:18:48.156Z,972.60
2022-12-22T00:19:47.434Z,972.58
2022-12-22T00:20:47.388Z,972.58
2022-12-22T00:21:47.393Z,972.54
2022-12-22T00:22:47.372Z,972.54
2022-12-22T00:23:47.411Z,972.54
2022-12-22T00:24:47.353Z,972.52
2022-12-22T00:25:47.347Z,972.48
2022-12-22T00:26:47.323Z,972.46
2022-12-22T00:27:47.340Z,972.46
2022-12-22T00:28:47.327Z,972.46
2022-12-22T00:29:48.013Z,972.42
2022-12-22T00:30:47.334Z,972.41
2022-12-22T00:31:47.291Z,972.37
2022-12-22T00:32:47.277Z,972.44
2022-12-22T00:33:47.263Z,972.43
2022-12-22T00:34:47.235Z,972.42
2022-12-22T00:35:47.997Z,972.43
2022-12-22T00:36:47.234Z,972.40
2022-12-22T00:37:47.216Z,972.38
2022-12-22T00:38:47.240Z,972.37
2022-12-22T00:39:47.213Z,972.35
2022-12-22T00:40:47.248Z,972.38
2022-12-22T00:41:47.187Z,972.32
2022-12-22T00:42:47.134Z,972.29
2022-12-22T00:43:47.156Z,972.30
2022-12-22T00:44:47.122Z,972.29
2022-12-22T00:45:47.204Z,972.25
2022-12-22T00:46:47.103Z,972.23
2022-12-22T00:47:47.105Z,972.14
2022-12-22T00:48:47.111Z,972.18
2022-12-22T00:49:47.084Z,972.11
2022-12-22T00:50:47.078Z,972.12
2022-12-22T00:51:47.073Z,972.17
2022-12-22T00:52:47.067Z,972.12
2022-12-22T00:53:47.052Z,972.11
2022-12-22T00:54:47.021Z,972.16
2022-12-22T00:55:47.012Z,972.17
2022-12-22T00:56:47.107Z,972.10
2022-12-22T00:57:47.029Z,972.13
2022-12-22T00:58:46.971Z,972.19
2022-12-22T00:59:46.976Z,972.10
2022-12-22T01:00:46.942Z,972.08
2022-12-22T01:01:47.218Z,972.09
2022-12-22T01:02:47.044Z,972.09
2022-12-22T01:03:47.003Z,972.04
2022-12-22T01:04:46.889Z,972.07
2022-12-22T01:05:46.909Z,972.04
2022-12-22T01:06:46.927Z,972.01
2022-12-22T01:07:46.888Z,972.01
2022-12-22T01:08:46.857Z,971.99
2022-12-22T01:09:46.921Z,972.02
2022-12-22T01:10:46.824Z,971.99
2022-12-22T01:11:46.833Z,971.97
2022-12-22T01:12:46.813Z,971.93
2022-12-22T01:13:46.812Z,971.95
2022-12-22T01:14:46.785Z,971.93
2022-12-22T01:15:46.854Z,971.89
2022-12-22T01:16:46.762Z,971.84
2022-12-22T01:17:46.804Z,971.88
2022-12-22T01:18:46.729Z,971.85
2022-12-22T01:19:46.765Z,971.76
2022-12-22T01:20:46.744Z,971.78
2022-12-22T01:21:46.725Z,971.76
2022-12-22T01:22:46.744Z,971.79
2022-12-22T01:23:46.711Z,971.75
2022-12-22T01:24:46.694Z,971.78
2022-12-22T01:25:46.680Z,971.79
2022-12-22T01:26:46.646Z,971.80
2022-12-22T01:27:46.657Z,971.78
2022-12-22T01:28:46.620Z,971.75
2022-12-22T01:29:46.671Z,971.75
2022-12-22T01:30:46.635Z,971.74
2022-12-22T01:31:46.613Z,971.66
2022-12-22T01:32:46.586Z,971.72
2022-12-22T01:33:46.619Z,971.66
2022-12-22T01:34:46.623Z,971.71
2022-12-22T01:35:46.748Z,971.65
2022-12-22T01:36:46.741Z,971.70
2022-12-22T01:37:46.697Z,971.64
2022-12-22T01:38:46.520Z,971.59
2022-12-22T01:39:46.530Z,971.61
2022-12-22T01:40:46.489Z,971.65
2022-12-22T01:41:46.519Z,971.60
2022-12-22T01:42:46.480Z,971.59
2022-12-22T01:43:47.118Z,971.57
2022-12-22T01:44:46.446Z,971.60
2022-12-22T01:45:46.459Z,971.60
2022-12-22T01:46:47.429Z,971.57
2022-12-22T01:47:46.438Z,971.53
2022-12-22T01:48:46.445Z,971.55
2022-12-22T01:49:47.039Z,971.51
2022-12-22T01:50:46.380Z,971.49
2022-12-22T01:51:46.400Z,971.53
2022-12-22T01:52:46.373Z,971.49
2022-12-22T01:53:46.386Z,971.46
2022-12-22T01:54:46.364Z,971.46
2022-12-22T01:55:46.354Z,971.49
2022-12-22T01:56:47.095Z,971.46
2022-12-22T01:57:47.112Z,971.48
2022-12-22T01:58:46.304Z,971.46
2022-12-22T01:59:46.359Z,971.40
2022-12-22T02:00:46.295Z,971.39
2022-12-22T02:01:46.434Z,971.39
2022-12-22T02:02:46.445Z,971.39
2022-12-22T02:03:47.129Z,971.33
2022-12-22T02:04:46.240Z,971.37
2022-12-22T02:05:46.283Z,971.34
2022-12-22T02:06:46.201Z,971.31
2022-12-22T02:07:46.237Z,971.32
2022-12-22T02:08:46.963Z,971.32
2022-12-22T02:09:46.260Z,971.28
2022-12-22T02:10:46.148Z,971.29
2022-12-22T02:11:46.162Z,971.23
2022-12-22T02:12:46.129Z,971.27
2022-12-22T02:13:46.145Z,971.26
2022-12-22T02:14:46.118Z,971.26
2022-12-22T02:15:46.191Z,971.19
2022-12-22T02:16:46.081Z,971.13
2022-12-22T02:17:46.985Z,971.13
2022-12-22T02:18:46.087Z,971.10
2022-12-22T02:19:46.212Z,971.12
2022-12-22T02:20:46.054Z,971.13
2022-12-22T02:21:46.048Z,971.14
2022-12-22T02:22:46.732Z,971.06
2022-12-22T02:23:46.030Z,971.10
2022-12-22T02:24:46.031Z,971.07
2022-12-22T02:25:46.034Z,971.08
2022-12-22T02:26:45.995Z,971.01
2022-12-22T02:27:46.060Z,971.01
2022-12-22T02:28:45.953Z,970.96
2022-12-22T02:29:46.005Z,971.00
2022-12-22T02:30:45.928Z,970.92
2022-12-22T02:31:45.992Z,970.92
2022-12-22T02:32:45.903Z,970.92
2022-12-22T02:33:45.939Z,970.96
2022-12-22T02:34:45.888Z,970.92
2022-12-22T02:35:46.217Z,970.79
2022-12-22T02:36:46.013Z,970.88
2022-12-22T02:37:45.886Z,970.87
2022-12-22T02:38:46.746Z,970.77
2022-12-22T02:39:45.877Z,970.75
2022-12-22T02:40:45.876Z,970.74
2022-12-22T02:41:46.607Z,970.75
2022-12-22T02:42:45.823Z,970.71
2022-12-22T02:43:45.810Z,970.65
2022-12-22T02:44:45.776Z,970.64
2022-12-22T02:45:45.789Z,970.71
2022-12-22T02:46:45.896Z,970.64
2022-12-22T02:47:45.785Z,970.65
2022-12-22T02:48:45.734Z,970.59
2022-12-22T02:49:45.768Z,970.60
2022-12-22T02:50:45.717Z,970.62
2022-12-22T02:51:45.715Z,970.63
2022-12-22T02:52:45.741Z,970.59
2022-12-22T02:53:45.707Z,970.60
2022-12-22T02:54:45.693Z,970.62
2022-12-22T02:55:45.869Z,970.62
2022-12-22T02:56:45.641Z,970.56
2022-12-22T02:57:46.359Z,970.56
2022-12-22T02:58:45.665Z,970.54
2022-12-22T02:59:45.771Z,970.52
2022-12-22T03:00:45.598Z,970.53
2022-12-22T03:01:45.856Z,970.55
2022-12-22T03:02:45.792Z,970.53
2022-12-22T03:03:45.661Z,970.53
2022-12-22T03:04:45.695Z,970.46
2022-12-22T03:05:45.585Z,970.46
2022-12-22T03:06:45.555Z,970.43
2022-12-22T03:07:45.619Z,970.44
2022-12-22T03:08:45.725Z,970.41
2022-12-22T03:09:46.246Z,970.34
2022-12-22T03:10:46.225Z,970.31
2022-12-22T03:11:45.485Z,970.31
2022-12-22T03:12:45.489Z,970.28
2022-12-22T03:13:45.494Z,970.27
2022-12-22T03:14:45.466Z,970.30
2022-12-22T03:15:46.321Z,970.30
2022-12-22T03:16:45.466Z,970.28
2022-12-22T03:17:45.432Z,970.30
2022-12-22T03:18:45.423Z,970.25
2022-12-22T03:19:46.174Z,970.26
2022-12-22T03:20:45.806Z,970.26
2022-12-22T03:21:45.368Z,970.26
2022-12-22T03:22:46.354Z,970.26
2022-12-22T03:23:45.355Z,970.24
2022-12-22T03:24:45.353Z,970.22
2022-12-22T03:25:45.423Z,970.16
2022-12-22T03:26:45.362Z,970.18
2022-12-22T03:27:45.434Z,970.13
2022-12-22T03:28:45.300Z,970.15
2022-12-22T03:29:45.264Z,970.10
2022-12-22T03:30:45.323Z,970.08
2022-12-22T03:31:45.360Z,970.09
2022-12-22T03:32:46.163Z,970.06
2022-12-22T03:33:45.234Z,970.03
2022-12-22T03:34:45.238Z,970.00
2022-12-22T03:35:45.227Z,969.97
2022-12-22T03:36:45.224Z,970.01
2022-12-22T03:37:45.311Z,969.99
2022-12-22T03:38:46.106Z,969.94
2022-12-22T03:39:46.008Z,969.94
2022-12-22T03:40:45.910Z,969.89
2022-12-22T03:41:45.154Z,969.91
2022-12-22T03:42:45.164Z,969.87
2022-12-22T03:43:45.138Z,969.85
2022-12-22T03:44:45.141Z,969.80
2022-12-22T03:45:45.092Z,969.80
2022-12-22T03:46:45.236Z,969.81
2022-12-22T03:47:45.108Z,969.83
2022-12-22T03:48:45.080Z,969.85
2022-12-22T03:49:45.190Z,969.82
2022-12-22T03:50:45.063Z,969.78
2022-12-22T03:51:45.383Z,969.84
2022-12-22T03:52:45.036Z,969.80
2022-12-22T03:53:45.047Z,969.75
2022-12-22T03:54:45.002Z,969.75
2022-12-22T03:55:44.971Z,969.74
2022-12-22T03:56:44.980Z,969.75
2022-12-22T03:57:44.964Z,969.71
2022-12-22T03:58:45.719Z,969.68
2022-12-22T03:59:45.883Z,969.66
2022-12-22T04:00:45.838Z,969.64
2022-12-22T04:01:45.220Z,969.62
2022-12-22T04:02:45.029Z,969.58
2022-12-22T04:03:44.882Z,969.54
2022-12-22T04:04:44.904Z,969.49
2022-12-22T04:05:44.869Z,969.45
2022-12-22T04:06:44.887Z,969.48
2022-12-22T04:07:44.838Z,969.44
2022-12-22T04:08:44.842Z,969.41
2022-12-22T04:09:44.812Z,969.39
2022-12-22T04:10:45.200Z,969.38
2022-12-22T04:11:44.795Z,969.37
2022-12-22T04:12:44.794Z,969.38
2022-12-22T04:13:44.787Z,969.36
2022-12-22T04:14:44.835Z,969.34
2022-12-22T04:15:44.860Z,969.30
2022-12-22T04:16:44.842Z,969.24
2022-12-22T04:17:44.744Z,969.25
2022-12-22T04:18:44.738Z,969.23
2022-12-22T04:19:44.871Z,969.20
2022-12-22T04:20:45.550Z,969.17
2022-12-22T04:21:44.684Z,969.14
2022-12-22T04:22:45.706Z,969.13
2022-12-22T04:23:44.684Z,969.16
2022-12-22T04:24:44.696Z,969.09
2022-12-22T04:25:44.639Z,969.08
2022-12-22T04:26:44.653Z,969.10
2022-12-22T04:27:45.492Z,969.11
2022-12-22T04:28:44.711Z,969.06
2022-12-22T04:29:44.920Z,969.08
2022-12-22T04:30:44.604Z,969.07
2022-12-22T04:31:44.637Z,969.03
2022-12-22T04:32:44.574Z,969.05
2022-12-22T04:33:44.550Z,969.09
2022-12-22T04:34:44.666Z,969.08
2022-12-22T04:35:44.520Z,969.05
2022-12-22T04:36:44.553Z,969.02
2022-12-22T04:37:44.502Z,969.07
2022-12-22T04:38:44.895Z,968.99
2022-12-22T04:39:44.506Z,969.00
2022-12-22T04:40:44.497Z,969.02
2022-12-22T04:41:44.826Z,969.03
2022-12-22T04:42:44.480Z,968.98
2022-12-22T04:43:44.490Z,968.99
2022-12-22T04:44:44.451Z,968.99
2022-12-22T04:45:44.581Z,969.02
2022-12-22T04:46:44.424Z,969.03
2022-12-22T04:47:44.379Z,968.98
2022-12-22T04:48:44.408Z,968.96
2022-12-22T04:49:44.550Z,968.95
2022-12-22T04:50:44.376Z,968.93
2022-12-22T04:51:44.350Z,968.84
2022-12-22T04:52:44.420Z,968.88
2022-12-22T04:53:44.311Z,968.79
2022-12-22T04:54:44.329Z,968.76
2022-12-22T04:55:44.290Z,968.75
2022-12-22T04:56:44.306Z,968.68
2022-12-22T04:57:44.280Z,968.72
2022-12-22T04:58:44.279Z,968.72
2022-12-22T04:59:44.248Z,968.70
2022-12-22T05:00:44.278Z,968.69
2022-12-22T05:01:44.470Z,968.62
2022-12-22T05:02:44.360Z,968.67
2022-12-22T05:03:44.326Z,968.66
2022-12-22T05:04:44.224Z,968.65
2022-12-22T05:05:44.180Z,968.63
2022-12-22T05:06:44.198Z,968.60
2022-12-22T05:07:45.245Z,968.56
2022-12-22T05:08:44.180Z,968.53
2022-12-22T05:09:44.168Z,968.51
2022-12-22T05:10:44.157Z,968.51
2022-12-22T05:11:44.121Z,968.50
2022-12-22T05:12:44.118Z,968.44
2022-12-22T05:13:44.095Z,968.46
2022-12-22T05:14:44.152Z,968.48
2022-12-22T05:15:44.070Z,968.42
2022-12-22T05:16:44.201Z,968.40
2022-12-22T05:17:44.037Z,968.37
2022-12-22T05:18:44.092Z,968.39
2022-12-22T05:19:44.017Z,968.35
2022-12-22T05:20:44.032Z,968.34
2022-12-22T05:21:44.107Z,968.27
2022-12-22T05:22:44.820Z,968.26
2022-12-22T05:23:44.005Z,968.26
2022-12-22T05:24:43.988Z,968.26
2022-12-22T05:25:43.978Z,968.26
2022-12-22T05:26:44.134Z,968.24
2022-12-22T05:27:43.955Z,968.25
2022-12-22T05:28:43.948Z,968.27
2022-12-22T05:29:43.913Z,968.19
2022-12-22T05:30:43.956Z,968.17
2022-12-22T05:31:47.353Z,968.19
2022-12-22T05:32:43.906Z,968.28
2022-12-22T05:33:43.913Z,968.19
2022-12-22T05:34:43.887Z,968.16
2022-12-22T05:35:43.837Z,968.19
2022-12-22T05:36:43.889Z,968.17
2022-12-22T05:37:43.828Z,968.16
2022-12-22T05:38:43.834Z,968.16
2022-12-22T05:39:43.851Z,968.21
2022-12-22T05:40:43.837Z,968.14
2022-12-22T05:41:44.538Z,968.14
2022-12-22T05:42:43.849Z,968.16
2022-12-22T05:43:43.929Z,968.12
2022-12-22T05:44:43.788Z,968.10
2022-12-22T05:45:43.865Z,968.11
2022-12-22T05:46:43.901Z,968.06
2022-12-22T05:47:43.744Z,968.11
2022-12-22T05:48:43.809Z,968.08
2022-12-22T05:49:43.711Z,968.04
2022-12-22T05:50:43.771Z,968.10
2022-12-22T05:51:43.669Z,968.15
2022-12-22T05:52:43.684Z,968.11
2022-12-22T05:53:43.675Z,968.07
2022-12-22T05:54:43.658Z,968.03
2022-12-22T05:55:43.616Z,968.04
2022-12-22T05:56:43.648Z,968.02
2022-12-22T05:57:43.593Z,967.98
2022-12-22T05:58:43.635Z,967.99
2022-12-22T05:59:43.638Z,968.09
2022-12-22T06:00:43.594Z,968.17
2022-12-22T06:01:43.632Z,968.23
2022-12-22T06:02:44.483Z,968.14
2022-12-22T06:03:43.624Z,968.15
2022-12-22T06:04:43.548Z,968.09
2022-12-22T06:05:43.529Z,968.15
2022-12-22T06:06:43.516Z,968.01
2022-12-22T06:07:43.521Z,968.03
2022-12-22T06:08:43.506Z,968.06
2022-12-22T06:09:43.466Z,968.02
2022-12-22T06:10:43.528Z,968.05
2022-12-22T06:11:43.439Z,967.98
2022-12-22T06:12:43.540Z,968.01
2022-12-22T06:13:43.474Z,967.95
2022-12-22T06:14:43.486Z,967.93
2022-12-22T06:15:43.514Z,967.87
2022-12-22T06:16:43.432Z,967.91
2022-12-22T06:17:45.207Z,967.83
2022-12-22T06:18:43.388Z,967.84
2022-12-22T06:19:43.987Z,967.90
2022-12-22T06:20:43.397Z,967.81
2022-12-22T06:21:43.378Z,967.76
2022-12-22T06:22:44.191Z,967.80
2022-12-22T06:23:43.340Z,967.81
2022-12-22T06:24:43.329Z,967.82
2022-12-22T06:25:43.341Z,967.72
2022-12-22T06:26:43.356Z,967.76
2022-12-22T06:27:50.825Z,967.72
2022-12-22T06:28:43.274Z,967.69
2022-12-22T06:29:43.238Z,967.67
2022-12-22T06:30:43.243Z,967.67
2022-12-22T06:31:43.248Z,967.72
2022-12-22T06:32:43.228Z,967.72
2022-12-22T06:33:43.184Z,967.75
2022-12-22T06:34:43.197Z,967.80
2022-12-22T06:35:43.164Z,967.67
2022-12-22T06:36:43.180Z,967.64
2022-12-22T06:37:43.134Z,967.63
2022-12-22T06:38:43.143Z,967.66
2022-12-22T06:39:43.132Z,967.67
2022-12-22T06:40:43.124Z,967.71
2022-12-22T06:41:43.096Z,967.64
2022-12-22T06:42:43.144Z,967.71
2022-12-22T06:43:43.083Z,967.80
2022-12-22T06:44:43.076Z,967.78
2022-12-22T06:45:43.057Z,967.78
2022-12-22T06:46:43.173Z,967.80
2022-12-22T06:47:43.043Z,967.76
2022-12-22T06:48:43.065Z,967.77
2022-12-22T06:49:43.043Z,967.84
2022-12-22T06:50:43.030Z,967.85
2022-12-22T06:51:42.983Z,967.83
2022-12-22T06:52:43.002Z,967.78
2022-12-22T06:53:42.974Z,967.82
2022-12-22T06:54:42.978Z,967.77
2022-12-22T06:55:42.969Z,967.82
2022-12-22T06:56:42.946Z,967.80
2022-12-22T06:57:42.922Z,967.86
2022-12-22T06:58:42.947Z,967.85
2022-12-22T06:59:42.915Z,967.94
2022-12-22T07:00:42.914Z,967.86
2022-12-22T07:01:43.000Z,967.94
2022-12-22T07:02:43.144Z,967.90
2022-12-22T07:03:42.960Z,967.93
2022-12-22T07:04:42.914Z,967.93
2022-12-22T07:05:42.839Z,967.90
2022-12-22T07:06:42.836Z,967.89
2022-12-22T07:07:42.806Z,967.89
2022-12-22T07:08:42.813Z,967.88
2022-12-22T07:09:42.782Z,967.86
2022-12-22T07:10:42.810Z,967.93
2022-12-22T07:11:42.782Z,967.90
2022-12-22T07:12:42.786Z,967.93
2022-12-22T07:13:42.731Z,967.95
2022-12-22T07:14:42.779Z,967.92
2022-12-22T07:15:42.800Z,967.96
2022-12-22T07:16:42.859Z,967.90
2022-12-22T07:17:42.691Z,968.01
2022-12-22T07:18:42.723Z,968.06
2022-12-22T07:19:42.682Z,967.96
2022-12-22T07:20:42.656Z,967.98
2022-12-22T07:21:42.682Z,967.98
2022-12-22T07:22:42.921Z,967.99
2022-12-22T07:23:43.116Z,967.99
2022-12-22T07:24:43.046Z,968.05
2022-12-22T07:25:42.653Z,968.05
2022-12-22T07:26:42.811Z,968.06
2022-12-22T07:27:43.271Z,968.09
2022-12-22T07:28:42.580Z,968.07
2022-12-22T07:29:42.594Z,968.04
2022-12-22T07:30:42.741Z,968.09
2022-12-22T07:31:42.593Z,968.06
2022-12-22T07:32:42.550Z,968.04
2022-12-22T07:33:42.609Z,968.07
2022-12-22T07:34:42.552Z,968.08
2022-12-22T07:35:42.563Z,968.09
2022-12-22T07:36:42.473Z,968.18
2022-12-22T07:37:42.538Z,968.22
2022-12-22T07:38:42.628Z,968.17
2022-12-22T07:39:42.469Z,968.22
2022-12-22T07:40:44.287Z,968.21
2022-12-22T07:41:42.776Z,968.24
2022-12-22T07:42:42.407Z,968.31
2022-12-22T07:43:42.478Z,968.37
2022-12-22T07:44:43.151Z,968.39
2022-12-22T07:45:42.465Z,968.40
2022-12-22T07:46:42.403Z,968.48
2022-12-22T07:47:42.379Z,968.48
2022-12-22T07:48:42.361Z,968.53
2022-12-22T07:49:42.363Z,968.54
2022-12-22T07:50:42.323Z,968.56
2022-12-22T07:51:42.333Z,968.53
2022-12-22T07:52:42.388Z,968.53
2022-12-22T07:53:42.380Z,968.54
2022-12-22T07:54:42.514Z,968.58
2022-12-22T07:55:42.319Z,968.58
2022-12-22T07:56:42.251Z,968.58
2022-12-22T07:57:42.395Z,968.57
2022-12-22T07:58:42.236Z,968.57
2022-12-22T07:59:42.262Z,968.60
2022-12-22T08:00:42.212Z,968.59
2022-12-22T08:01:42.413Z,968.67
2022-12-22T08:02:42.347Z,968.68
2022-12-22T08:03:42.371Z,968.70
2022-12-22T08:04:42.528Z,968.72
2022-12-22T08:05:42.916Z,968.73
2022-12-22T08:06:42.179Z,968.75
2022-12-22T08:07:42.159Z,968.72
2022-12-22T08:08:42.109Z,968.69
2022-12-22T08:09:42.119Z,968.72
2022-12-22T08:10:42.331Z,968.71
2022-12-22T08:11:42.119Z,968.72
2022-12-22T08:12:42.125Z,968.78
2022-12-22T08:13:42.103Z,968.85
2022-12-22T08:14:42.059Z,968.84
2022-12-22T08:15:42.057Z,968.88
2022-12-22T08:16:42.071Z,968.89
2022-12-22T08:17:42.043Z,968.92
2022-12-22T08:18:42.001Z,969.02
2022-12-22T08:19:42.578Z,969.00
2022-12-22T08:20:41.995Z,969.00
2022-12-22T08:21:46.777Z,969.04
2022-12-22T08:22:43.720Z,968.99
2022-12-22T08:23:41.989Z,969.09
2022-12-22T08:24:42.617Z,969.08
2022-12-22T08:25:41.958Z,969.09
2022-12-22T08:26:42.020Z,969.14
2022-12-22T08:27:41.927Z,969.15
2022-12-22T08:28:41.938Z,969.16
2022-12-22T08:29:41.910Z,969.23
2022-12-22T08:30:41.876Z,969.21
2022-12-22T08:31:41.936Z,969.24
2022-12-22T08:32:41.859Z,969.23
2022-12-22T08:33:41.868Z,969.27
2022-12-22T08:34:41.849Z,969.28
2022-12-22T08:35:41.831Z,969.27
2022-12-22T08:36:41.872Z,969.32
2022-12-22T08:37:41.825Z,969.34
2022-12-22T08:38:41.780Z,969.41
2022-12-22T08:39:41.799Z,969.38
2022-12-22T08:40:41.761Z,969.39
2022-12-22T08:41:41.910Z,969.40
2022-12-22T08:42:41.737Z,969.42
2022-12-22T08:43:41.769Z,969.49
2022-12-22T08:44:41.726Z,969.44
2022-12-22T08:45:41.954Z,969.46
2022-12-22T08:46:41.751Z,969.50
2022-12-22T08:47:41.765Z,969.52
2022-12-22T08:48:41.664Z,969.54
2022-12-22T08:49:41.767Z,969.56
2022-12-22T08:50:41.696Z,969.59
2022-12-22T08:51:41.663Z,969.61
2022-12-22T08:52:41.887Z,969.59
2022-12-22T08:54:42.628Z,969.62
2022-12-22T08:55:41.619Z,969.61
2022-12-22T08:56:41.631Z,969.64
2022-12-22T08:57:41.581Z,969.58
2022-12-22T08:58:41.718Z,969.60
2022-12-22T08:59:41.575Z,969.65
2022-12-22T09:00:41.545Z,969.67
2022-12-22T09:01:41.703Z,969.67
2022-12-22T09:02:41.752Z,969.77
2022-12-22T09:03:41.518Z,969.78
2022-12-22T09:04:41.547Z,969.81
2022-12-22T09:05:41.595Z,969.83
2022-12-22T09:06:41.706Z,969.82
2022-12-22T09:07:41.705Z,969.85
2022-12-22T09:08:41.439Z,969.86
2022-12-22T09:09:41.459Z,969.89
2022-12-22T09:10:41.477Z,969.89
2022-12-22T09:11:41.479Z,969.90
2022-12-22T09:12:41.398Z,969.91
2022-12-22T09:13:41.447Z,969.89
2022-12-22T09:14:41.949Z,969.96
2022-12-22T09:15:41.651Z,969.98
2022-12-22T09:16:41.427Z,970.02
2022-12-22T09:17:41.357Z,970.06
2022-12-22T09:18:41.327Z,970.05
2022-12-22T09:19:41.341Z,970.06
2022-12-22T09:20:41.350Z,970.11
2022-12-22T09:21:41.328Z,970.13
2022-12-22T09:22:41.597Z,970.19
2022-12-22T09:23:41.345Z,970.19
2022-12-22T09:24:41.320Z,970.22
2022-12-22T09:25:41.399Z,970.20
2022-12-22T09:26:41.507Z,970.17
2022-12-22T09:27:41.536Z,970.17
2022-12-22T09:28:45.126Z,970.20
2022-12-22T09:29:42.223Z,970.16
2022-12-22T09:30:41.206Z,970.17
2022-12-22T09:31:41.259Z,970.22
2022-12-22T09:32:41.214Z,970.23
2022-12-22T09:33:41.264Z,970.29
2022-12-22T09:34:41.146Z,970.28
2022-12-22T09:35:41.156Z,970.30
2022-12-22T09:36:41.133Z,970.30
2022-12-22T09:37:41.136Z,970.28
2022-12-22T09:38:41.109Z,970.29
2022-12-22T09:39:41.106Z,970.32
2022-12-22T09:40:41.076Z,970.34
2022-12-22T09:41:41.102Z,970.34
2022-12-22T09:42:41.055Z,970.37
2022-12-22T09:43:41.202Z,970.35
2022-12-22T09:44:41.094Z,970.38
2022-12-22T09:45:41.209Z,970.39
2022-12-22T09:46:40.996Z,970.40
2022-12-22T09:47:41.102Z,970.42
2022-12-22T09:48:40.978Z,970.43
2022-12-22T09:49:41.032Z,970.45
2022-12-22T09:50:40.971Z,970.45
2022-12-22T09:51:40.978Z,970.50
2022-12-22T09:52:40.941Z,970.53
2022-12-22T09:53:40.995Z,970.58
2022-12-22T09:54:40.915Z,970.56
2022-12-22T09:55:40.940Z,970.64
2022-12-22T09:56:40.902Z,970.72
2022-12-22T09:57:40.906Z,970.77
2022-12-22T09:58:40.887Z,970.82
2022-12-22T09:59:40.916Z,970.85
2022-12-22T10:00:40.863Z,970.89
2022-12-22T10:01:40.923Z,971.02
2022-12-22T10:02:40.847Z,971.01
2022-12-22T10:03:40.859Z,971.01
2022-12-22T10:04:40.806Z,971.07
2022-12-22T10:05:40.811Z,971.06
2022-12-22T10:06:40.786Z,971.08
2022-12-22T10:07:40.795Z,971.13
2022-12-22T10:08:40.808Z,971.13
2022-12-22T10:09:50.828Z,971.17
2022-12-22T10:10:41.757Z,971.11
2022-12-22T10:11:40.785Z,971.12
2022-12-22T10:12:40.722Z,971.14
2022-12-22T10:13:40.762Z,971.19
2022-12-22T10:14:40.685Z,971.15
2022-12-22T10:15:40.713Z,971.16
2022-12-22T10:16:40.709Z,971.23
2022-12-22T10:17:40.690Z,971.22
2022-12-22T10:18:40.668Z,971.23
2022-12-22T10:19:40.653Z,971.27
2022-12-22T10:20:40.956Z,971.24
2022-12-22T10:21:46.414Z,971.27
2022-12-22T10:22:41.794Z,971.34
2022-12-22T10:23:40.618Z,971.39
2022-12-22T10:24:40.577Z,971.36
2022-12-22T10:26:41.586Z,971.36
2022-12-22T10:27:45.497Z,971.41
2022-12-22T10:28:41.961Z,971.47
2022-12-22T10:29:40.564Z,971.47
2022-12-22T10:30:40.512Z,971.47
2022-12-22T10:31:40.555Z,971.53
2022-12-22T10:32:40.506Z,971.46
2022-12-22T10:33:46.171Z,971.48
2022-12-22T10:34:41.464Z,971.57
2022-12-22T10:35:40.467Z,971.55
2022-12-22T10:36:40.441Z,971.57
2022-12-22T10:37:40.444Z,971.59
2022-12-22T10:38:40.413Z,971.58
2022-12-22T10:39:40.424Z,971.55
2022-12-22T10:40:40.398Z,971.59
2022-12-22T10:41:40.409Z,971.61
2022-12-22T10:42:40.381Z,971.67
2022-12-22T10:43:40.376Z,971.71
2022-12-22T10:44:40.358Z,971.72
2022-12-22T10:45:40.410Z,971.72
2022-12-22T10:46:40.334Z,971.69
2022-12-22T10:47:40.322Z,971.69
2022-12-22T10:48:40.335Z,971.64
2022-12-22T10:50:11.076Z,971.67
2022-12-22T10:51:11.034Z,971.70
2022-12-22T10:52:11.081Z,971.71
2022-12-22T10:53:11.025Z,971.72
2022-12-22T10:54:11.025Z,971.68
2022-12-22T10:55:11.018Z,971.74
2022-12-22T10:56:11.030Z,971.72
2022-12-22T10:57:10.968Z,971.77
2022-12-22T10:58:11.432Z,971.83
2022-12-22T10:59:10.997Z,971.84
2022-12-22T11:00:10.997Z,971.77
2022-12-22T11:01:10.960Z,971.75
2022-12-22T11:02:11.170Z,971.81
2022-12-22T11:03:10.985Z,971.82
2022-12-22T11:04:10.968Z,971.79
2022-12-22T11:05:10.912Z,971.83
2022-12-22T11:06:10.902Z,971.85
2022-12-22T11:07:10.869Z,971.87
2022-12-22T11:08:10.885Z,971.91
2022-12-22T11:09:32.414Z,971.94
2022-12-22T11:10:11.846Z,971.92
2022-12-22T11:11:10.812Z,971.93
2022-12-22T11:12:10.833Z,971.96
2022-12-22T11:13:10.804Z,972.03
2022-12-22T11:14:10.813Z,972.01
2022-12-22T11:15:10.774Z,972.03
2022-12-22T11:16:11.291Z,971.99
2022-12-22T11:17:10.827Z,972.07
2022-12-22T11:18:10.775Z,972.05
2022-12-22T11:19:10.727Z,972.07
2022-12-22T11:20:10.743Z,972.09
2022-12-22T11:21:10.757Z,972.11
2022-12-22T11:22:10.721Z,972.16
2022-12-22T11:23:10.705Z,972.21
2022-12-22T11:24:10.693Z,972.22
2022-12-22T11:25:10.677Z,972.28
2022-12-22T11:26:10.672Z,972.35
2022-12-22T11:27:10.656Z,972.33
2022-12-22T11:28:10.657Z,972.33
2022-12-22T11:29:10.616Z,972.33
2022-12-22T11:30:10.670Z,972.36
2022-12-22T11:31:10.600Z,972.32
2022-12-22T11:32:10.593Z,972.38
2022-12-22T11:33:10.571Z,972.38
2022-12-22T11:34:14.491Z,972.39
2022-12-22T11:35:11.546Z,972.46
2022-12-22T11:36:10.563Z,972.46
2022-12-22T11:37:10.515Z,972.51
2022-12-22T11:38:10.538Z,972.55
2022-12-22T11:39:10.509Z,972.57
2022-12-22T11:40:10.560Z,972.59
2022-12-22T11:41:11.254Z,972.60
2022-12-22T11:42:10.503Z,972.64
2022-12-22T11:43:13.413Z,972.65
2022-12-22T11:44:10.485Z,972.66
2022-12-22T11:45:10.436Z,972.67
2022-12-22T11:46:10.542Z,972.68
2022-12-22T11:47:10.413Z,972.66
2022-12-22T11:48:10.404Z,972.74
2022-12-22T11:49:10.723Z,972.77
2022-12-22T11:51:00.383Z,972.82
2022-12-22T11:51:13.216Z,972.87
2022-12-22T11:52:10.367Z,972.78
2022-12-22T11:53:10.332Z,972.79
2022-12-22T11:54:12.004Z,972.76
2022-12-22T11:55:10.326Z,972.78
2022-12-22T11:56:10.334Z,972.82
2022-12-22T11:57:10.295Z,972.83
2022-12-22T11:58:10.303Z,972.76
2022-12-22T11:59:10.426Z,972.80
2022-12-22T12:00:11.220Z,972.79
2022-12-22T12:01:19.040Z,972.79
2022-12-22T12:02:11.466Z,972.76
2022-12-22T12:03:10.388Z,972.81
2022-12-22T12:04:10.284Z,972.90
2022-12-22T12:05:10.192Z,972.89
2022-12-22T12:06:10.930Z,972.95
2022-12-22T12:07:10.257Z,972.92
2022-12-22T12:08:10.199Z,972.93
2022-12-22T12:09:10.229Z,972.93
2022-12-22T12:10:10.272Z,972.94
2022-12-22T12:11:10.247Z,972.93
2022-12-22T12:12:10.155Z,972.93
2022-12-22T12:13:10.114Z,972.96
2022-12-22T12:14:10.165Z,973.01
2022-12-22T12:15:10.088Z,973.07
2022-12-22T12:16:10.183Z,973.04
2022-12-22T12:17:10.066Z,973.13
2022-12-22T12:18:10.082Z,973.13
2022-12-22T12:19:10.125Z,973.12
2022-12-22T12:20:10.042Z,973.11
2022-12-22T12:21:10.120Z,973.12
2022-12-22T12:22:10.128Z,973.12
2022-12-22T12:23:10.015Z,973.12
2022-12-22T12:24:10.045Z,973.10
2022-12-22T12:25:10.004Z,973.14
2022-12-22T12:26:09.951Z,973.17
2022-12-22T12:27:09.972Z,973.21
2022-12-22T12:28:10.012Z,973.24
2022-12-22T12:29:09.952Z,973.25
2022-12-22T12:31:10.975Z,973.24
2022-12-22T12:32:09.914Z,973.25